sensor_id;sensor_type;location;lat;lon;timestamp;temperature;humidity
5647;DHT22;2845;48.626;9.362;2023-07-29T00:02:06;16.30;99.90
5647;DHT22;2845;48.626;9.362;2023-07-29T00:04:40;16.30;99.90
5647;DHT22;2845;48.626;9.362;2023-07-29T00:07:14;16.30;99.90
5647;DHT22;2845;48.626;9.362;2023-07-29T00:09:49;16.30;99.90
5647;DHT22;2845;48.626;9.362;2023-07-29T00:12:27;16.30;99.90
5647;DHT22;2845;48.626;9.362;2023-07-29T00:15:02;16.30;99.90
5647;DHT22;2845;48.626;9.362;2023-07-29T00:17:38;16.30;99.90
5647;DHT22;2845;48.626;9.362;2023-07-29T00:20:12;16.80;99.90
5647;DHT22;2845;48.626;9.362;2023-07-29T00:22:46;16.40;99.90
5647;DHT22;2845;48.626;9.362;2023-07-29T00:25:22;16.40;99.90
5647;DHT22;2845;48.626;9.362;2023-07-29T00:27:56;16.40;99.90
5647;DHT22;2845;48.626;9.362;2023-07-29T00:30:31;16.40;99.90
5647;DHT22;2845;48.626;9.362;2023-07-29T00:33:06;16.50;99.90
5647;DHT22;2845;48.626;9.362;2023-07-29T00:35:41;16.50;99.90
5647;DHT22;2845;48.626;9.362;2023-07-29T00:38:15;16.50;99.90
5647;DHT22;2845;48.626;9.362;2023-07-29T00:40:50;16.50;99.90
5647;DHT22;2845;48.626;9.362;2023-07-29T00:43:25;16.60;99.90
5647;DHT22;2845;48.626;9.362;2023-07-29T00:45:59;16.60;99.90
5647;DHT22;2845;48.626;9.362;2023-07-29T00:48:35;16.60;99.90
5647;DHT22;2845;48.626;9.362;2023-07-29T00:51:10;16.70;99.90
5647;DHT22;2845;48.626;9.362;2023-07-29T00:53:44;16.60;99.90
5647;DHT22;2845;48.626;9.362;2023-07-29T00:56:19;16.60;99.90
5647;DHT22;2845;48.626;9.362;2023-07-29T00:58:55;16.60;99.90
5647;DHT22;2845;48.626;9.362;2023-07-29T01:01:33;16.60;99.90
5647;DHT22;2845;48.626;9.362;2023-07-29T01:04:09;16.60;99.90
5647;DHT22;2845;48.626;9.362;2023-07-29T01:06:50;16.60;99.90
5647;DHT22;2845;48.626;9.362;2023-07-29T01:09:33;16.60;99.90
5647;DHT22;2845;48.626;9.362;2023-07-29T01:12:17;16.60;99.90
5647;DHT22;2845;48.626;9.362;2023-07-29T01:15:03;16.60;99.90
5647;DHT22;2845;48.626;9.362;2023-07-29T01:17:46;16.60;99.90
5647;DHT22;2845;48.626;9.362;2023-07-29T01:20:25;16.60;99.90
5647;DHT22;2845;48.626;9.362;2023-07-29T01:22:59;16.60;99.90
5647;DHT22;2845;48.626;9.362;2023-07-29T01:25:35;16.70;99.90
5647;DHT22;2845;48.626;9.362;2023-07-29T01:28:09;16.70;99.90
5647;DHT22;2845;48.626;9.362;2023-07-29T01:30:44;16.70;99.90
5647;DHT22;2845;48.626;9.362;2023-07-29T01:33:25;16.70;99.90
5647;DHT22;2845;48.626;9.362;2023-07-29T01:36:03;16.70;99.90
5647;DHT22;2845;48.626;9.362;2023-07-29T01:38:41;16.70;99.90
5647;DHT22;2845;48.626;9.362;2023-07-29T01:41:18;16.80;99.90
5647;DHT22;2845;48.626;9.362;2023-07-29T01:43:55;16.80;99.90
5647;DHT22;2845;48.626;9.362;2023-07-29T01:46:33;16.80;99.90
5647;DHT22;2845;48.626;9.362;2023-07-29T01:49:07;16.80;99.90
5647;DHT22;2845;48.626;9.362;2023-07-29T01:51:41;16.80;99.90
5647;DHT22;2845;48.626;9.362;2023-07-29T01:54:16;16.80;99.90
5647;DHT22;2845;48.626;9.362;2023-07-29T01:56:51;16.80;99.90
5647;DHT22;2845;48.626;9.362;2023-07-29T01:59:28;16.80;99.90
5647;DHT22;2845;48.626;9.362;2023-07-29T02:02:02;16.80;99.90
5647;DHT22;2845;48.626;9.362;2023-07-29T02:04:37;16.80;99.90
5647;DHT22;2845;48.626;9.362;2023-07-29T02:07:11;16.80;99.90
5647;DHT22;2845;48.626;9.362;2023-07-29T02:09:45;17.90;99.90
5647;DHT22;2845;48.626;9.362;2023-07-29T02:12:21;16.80;99.90
5647;DHT22;2845;48.626;9.362;2023-07-29T02:14:58;16.80;99.90
5647;DHT22;2845;48.626;9.362;2023-07-29T02:17:32;16.80;99.90
5647;DHT22;2845;48.626;9.362;2023-07-29T02:20:07;16.80;99.90
5647;DHT22;2845;48.626;9.362;2023-07-29T02:22:44;16.70;99.90
5647;DHT22;2845;48.626;9.362;2023-07-29T02:25:18;16.70;99.90
5647;DHT22;2845;48.626;9.362;2023-07-29T02:27:54;16.70;99.90
5647;DHT22;2845;48.626;9.362;2023-07-29T02:30:28;16.70;99.90
5647;DHT22;2845;48.626;9.362;2023-07-29T02:33:03;16.70;99.90
5647;DHT22;2845;48.626;9.362;2023-07-29T02:35:37;16.70;99.90
5647;DHT22;2845;48.626;9.362;2023-07-29T02:38:11;16.80;99.90
5647;DHT22;2845;48.626;9.362;2023-07-29T02:40:45;16.70;99.90
5647;DHT22;2845;48.626;9.362;2023-07-29T02:43:21;16.70;99.90
5647;DHT22;2845;48.626;9.362;2023-07-29T02:45:58;16.70;99.90
5647;DHT22;2845;48.626;9.362;2023-07-29T02:48:32;16.60;99.90
5647;DHT22;2845;48.626;9.362;2023-07-29T02:51:07;16.60;99.90
5647;DHT22;2845;48.626;9.362;2023-07-29T02:53:41;16.60;99.90
5647;DHT22;2845;48.626;9.362;2023-07-29T02:56:15;16.60;99.90
5647;DHT22;2845;48.626;9.362;2023-07-29T02:58:51;16.70;99.90
5647;DHT22;2845;48.626;9.362;2023-07-29T03:01:27;16.60;99.90
5647;DHT22;2845;48.626;9.362;2023-07-29T03:04:01;16.60;99.90
5647;DHT22;2845;48.626;9.362;2023-07-29T03:06:35;16.50;99.90
5647;DHT22;2845;48.626;9.362;2023-07-29T03:09:10;16.60;99.90
5647;DHT22;2845;48.626;9.362;2023-07-29T03:11:44;16.60;99.90
5647;DHT22;2845;48.626;9.362;2023-07-29T03:14:20;16.60;99.90
5647;DHT22;2845;48.626;9.362;2023-07-29T03:16:55;16.60;99.90
5647;DHT22;2845;48.626;9.362;2023-07-29T03:19:31;16.60;99.90
5647;DHT22;2845;48.626;9.362;2023-07-29T03:22:05;16.60;99.90
5647;DHT22;2845;48.626;9.362;2023-07-29T03:24:40;16.60;99.90
5647;DHT22;2845;48.626;9.362;2023-07-29T03:27:15;16.60;99.90
5647;DHT22;2845;48.626;9.362;2023-07-29T03:29:50;16.50;99.90
5647;DHT22;2845;48.626;9.362;2023-07-29T03:32:25;16.50;99.90
5647;DHT22;2845;48.626;9.362;2023-07-29T03:34:59;16.50;99.90
5647;DHT22;2845;48.626;9.362;2023-07-29T03:37:33;16.50;99.90
5647;DHT22;2845;48.626;9.362;2023-07-29T03:40:08;16.40;99.90
5647;DHT22;2845;48.626;9.362;2023-07-29T03:42:43;16.50;99.90
5647;DHT22;2845;48.626;9.362;2023-07-29T03:45:18;16.50;99.90
5647;DHT22;2845;48.626;9.362;2023-07-29T03:47:53;16.50;99.90
5647;DHT22;2845;48.626;9.362;2023-07-29T03:50:28;16.50;99.90
5647;DHT22;2845;48.626;9.362;2023-07-29T03:53:03;16.50;99.90
5647;DHT22;2845;48.626;9.362;2023-07-29T03:55:38;16.50;99.90
5647;DHT22;2845;48.626;9.362;2023-07-29T03:58:12;16.60;99.90
5647;DHT22;2845;48.626;9.362;2023-07-29T04:00:47;16.70;99.90
5647;DHT22;2845;48.626;9.362;2023-07-29T04:03:22;16.60;99.90
5647;DHT22;2845;48.626;9.362;2023-07-29T04:05:56;16.60;99.90
5647;DHT22;2845;48.626;9.362;2023-07-29T04:08:30;16.60;99.90
5647;DHT22;2845;48.626;9.362;2023-07-29T04:11:05;16.60;99.90
5647;DHT22;2845;48.626;9.362;2023-07-29T04:13:39;16.70;99.90
5647;DHT22;2845;48.626;9.362;2023-07-29T04:16:15;16.70;99.90
5647;DHT22;2845;48.626;9.362;2023-07-29T04:18:49;16.70;99.90
5647;DHT22;2845;48.626;9.362;2023-07-29T04:21:24;16.70;99.90
5647;DHT22;2845;48.626;9.362;2023-07-29T04:23:58;16.60;99.90
5647;DHT22;2845;48.626;9.362;2023-07-29T04:26:33;16.60;99.90
5647;DHT22;2845;48.626;9.362;2023-07-29T04:29:07;16.60;99.90
5647;DHT22;2845;48.626;9.362;2023-07-29T04:31:43;16.60;99.90
5647;DHT22;2845;48.626;9.362;2023-07-29T04:34:17;16.70;99.90
5647;DHT22;2845;48.626;9.362;2023-07-29T04:36:52;16.70;99.90
5647;DHT22;2845;48.626;9.362;2023-07-29T04:39:26;16.80;99.90
5647;DHT22;2845;48.626;9.362;2023-07-29T04:42:01;16.90;99.90
5647;DHT22;2845;48.626;9.362;2023-07-29T04:44:35;17.00;99.90
5647;DHT22;2845;48.626;9.362;2023-07-29T04:47:10;17.00;99.90
5647;DHT22;2845;48.626;9.362;2023-07-29T04:49:45;17.00;99.90
5647;DHT22;2845;48.626;9.362;2023-07-29T04:52:19;17.00;99.90
5647;DHT22;2845;48.626;9.362;2023-07-29T04:54:54;17.00;99.90
5647;DHT22;2845;48.626;9.362;2023-07-29T04:57:30;17.10;99.90
5647;DHT22;2845;48.626;9.362;2023-07-29T05:00:05;17.10;99.90
5647;DHT22;2845;48.626;9.362;2023-07-29T05:02:42;17.10;99.90
5647;DHT22;2845;48.626;9.362;2023-07-29T05:05:16;17.20;99.90
5647;DHT22;2845;48.626;9.362;2023-07-29T05:07:50;17.20;99.90
5647;DHT22;2845;48.626;9.362;2023-07-29T05:10:24;17.10;99.90
5647;DHT22;2845;48.626;9.362;2023-07-29T05:12:59;17.00;99.90
5647;DHT22;2845;48.626;9.362;2023-07-29T05:15:33;17.00;99.90
5647;DHT22;2845;48.626;9.362;2023-07-29T05:18:08;17.00;99.90
5647;DHT22;2845;48.626;9.362;2023-07-29T05:20:42;17.00;99.90
5647;DHT22;2845;48.626;9.362;2023-07-29T05:23:17;17.00;99.90
5647;DHT22;2845;48.626;9.362;2023-07-29T05:25:51;17.10;99.90
5647;DHT22;2845;48.626;9.362;2023-07-29T05:28:25;17.00;99.90
5647;DHT22;2845;48.626;9.362;2023-07-29T05:31:00;17.10;99.90
5647;DHT22;2845;48.626;9.362;2023-07-29T05:33:36;17.00;99.90
5647;DHT22;2845;48.626;9.362;2023-07-29T05:36:11;17.00;99.90
5647;DHT22;2845;48.626;9.362;2023-07-29T05:38:45;17.00;99.90
5647;DHT22;2845;48.626;9.362;2023-07-29T05:41:19;17.10;99.90
5647;DHT22;2845;48.626;9.362;2023-07-29T05:43:53;17.10;99.90
5647;DHT22;2845;48.626;9.362;2023-07-29T05:46:29;17.10;99.90
5647;DHT22;2845;48.626;9.362;2023-07-29T05:49:05;17.10;99.90
5647;DHT22;2845;48.626;9.362;2023-07-29T05:51:40;17.10;99.90
5647;DHT22;2845;48.626;9.362;2023-07-29T05:54:14;17.20;99.90
5647;DHT22;2845;48.626;9.362;2023-07-29T05:56:48;17.40;99.90
5647;DHT22;2845;48.626;9.362;2023-07-29T05:59:22;17.70;99.90
5647;DHT22;2845;48.626;9.362;2023-07-29T06:01:57;17.90;99.90
5647;DHT22;2845;48.626;9.362;2023-07-29T06:04:33;18.00;99.90
5647;DHT22;2845;48.626;9.362;2023-07-29T06:07:08;18.10;99.90
5647;DHT22;2845;48.626;9.362;2023-07-29T06:09:43;18.10;99.90
5647;DHT22;2845;48.626;9.362;2023-07-29T06:12:17;18.20;99.90
5647;DHT22;2845;48.626;9.362;2023-07-29T06:14:51;18.20;99.90
5647;DHT22;2845;48.626;9.362;2023-07-29T06:17:26;18.20;99.90
5647;DHT22;2845;48.626;9.362;2023-07-29T06:20:02;18.40;99.90
5647;DHT22;2845;48.626;9.362;2023-07-29T06:22:37;18.60;99.90
5647;DHT22;2845;48.626;9.362;2023-07-29T06:25:11;19.00;99.90
5647;DHT22;2845;48.626;9.362;2023-07-29T06:27:45;19.10;99.90
5647;DHT22;2845;48.626;9.362;2023-07-29T06:30:20;19.30;99.90
5647;DHT22;2845;48.626;9.362;2023-07-29T06:32:54;19.70;99.90
5647;DHT22;2845;48.626;9.362;2023-07-29T06:35:32;19.60;99.90
5647;DHT22;2845;48.626;9.362;2023-07-29T06:38:06;19.70;99.90
5647;DHT22;2845;48.626;9.362;2023-07-29T06:40:41;19.80;99.90
5647;DHT22;2845;48.626;9.362;2023-07-29T06:43:15;20.10;99.90
5647;DHT22;2845;48.626;9.362;2023-07-29T06:45:49;20.40;99.90
5647;DHT22;2845;48.626;9.362;2023-07-29T06:48:24;20.70;99.90
5647;DHT22;2845;48.626;9.362;2023-07-29T06:51:00;20.80;99.90
5647;DHT22;2845;48.626;9.362;2023-07-29T06:53:35;20.80;99.90
5647;DHT22;2845;48.626;9.362;2023-07-29T06:56:09;21.50;99.90
5647;DHT22;2845;48.626;9.362;2023-07-29T06:58:43;20.50;99.90
5647;DHT22;2845;48.626;9.362;2023-07-29T07:01:17;20.40;99.90
5647;DHT22;2845;48.626;9.362;2023-07-29T07:03:51;20.20;99.90
5647;DHT22;2845;48.626;9.362;2023-07-29T07:06:28;20.10;99.90
5647;DHT22;2845;48.626;9.362;2023-07-29T07:09:03;19.90;99.90
5647;DHT22;2845;48.626;9.362;2023-07-29T07:11:37;19.70;99.90
5647;DHT22;2845;48.626;9.362;2023-07-29T07:14:11;19.50;99.90
5647;DHT22;2845;48.626;9.362;2023-07-29T07:16:45;19.20;99.90
5647;DHT22;2845;48.626;9.362;2023-07-29T07:19:20;18.90;99.90
5647;DHT22;2845;48.626;9.362;2023-07-29T07:21:55;18.60;99.90
5647;DHT22;2845;48.626;9.362;2023-07-29T07:24:29;18.50;99.90
5647;DHT22;2845;48.626;9.362;2023-07-29T07:27:04;18.30;99.90
5647;DHT22;2845;48.626;9.362;2023-07-29T07:29:38;18.30;99.90
5647;DHT22;2845;48.626;9.362;2023-07-29T07:32:13;18.20;99.90
5647;DHT22;2845;48.626;9.362;2023-07-29T07:34:47;18.10;99.90
5647;DHT22;2845;48.626;9.362;2023-07-29T07:37:22;18.10;99.90
5647;DHT22;2845;48.626;9.362;2023-07-29T07:39:56;18.10;99.90
5647;DHT22;2845;48.626;9.362;2023-07-29T07:42:30;18.20;99.90
5647;DHT22;2845;48.626;9.362;2023-07-29T07:45:05;18.20;99.90
5647;DHT22;2845;48.626;9.362;2023-07-29T07:47:39;18.30;99.90
5647;DHT22;2845;48.626;9.362;2023-07-29T07:50:14;18.40;99.90
5647;DHT22;2845;48.626;9.362;2023-07-29T07:52:49;18.50;99.90
5647;DHT22;2845;48.626;9.362;2023-07-29T07:55:23;18.60;99.90
5647;DHT22;2845;48.626;9.362;2023-07-29T07:57:57;18.70;99.90
5647;DHT22;2845;48.626;9.362;2023-07-29T08:00:32;18.70;99.90
5647;DHT22;2845;48.626;9.362;2023-07-29T08:03:06;18.80;99.90
5647;DHT22;2845;48.626;9.362;2023-07-29T08:05:40;18.80;99.90
5647;DHT22;2845;48.626;9.362;2023-07-29T08:08:15;18.80;99.90
5647;DHT22;2845;48.626;9.362;2023-07-29T08:10:49;18.80;99.90
5647;DHT22;2845;48.626;9.362;2023-07-29T08:13:26;19.00;99.90
5647;DHT22;2845;48.626;9.362;2023-07-29T08:16:00;19.20;99.90
5647;DHT22;2845;48.626;9.362;2023-07-29T08:18:34;18.80;99.90
5647;DHT22;2845;48.626;9.362;2023-07-29T08:21:08;19.70;99.90
5647;DHT22;2845;48.626;9.362;2023-07-29T08:23:44;21.40;99.90
5647;DHT22;2845;48.626;9.362;2023-07-29T08:26:18;20.50;99.90
5647;DHT22;2845;48.626;9.362;2023-07-29T08:28:52;20.70;99.90
5647;DHT22;2845;48.626;9.362;2023-07-29T08:31:27;21.00;99.90
5647;DHT22;2845;48.626;9.362;2023-07-29T08:34:01;21.20;99.90
5647;DHT22;2845;48.626;9.362;2023-07-29T08:36:35;21.30;99.90
5647;DHT22;2845;48.626;9.362;2023-07-29T08:39:11;22.90;99.90
5647;DHT22;2845;48.626;9.362;2023-07-29T08:41:51;23.10;99.90
5647;DHT22;2845;48.626;9.362;2023-07-29T08:44:31;21.40;99.90
5647;DHT22;2845;48.626;9.362;2023-07-29T08:47:09;21.30;99.90
5647;DHT22;2845;48.626;9.362;2023-07-29T08:49:45;21.20;99.90
5647;DHT22;2845;48.626;9.362;2023-07-29T08:52:20;21.30;99.90
5647;DHT22;2845;48.626;9.362;2023-07-29T08:54:56;21.50;99.90
5647;DHT22;2845;48.626;9.362;2023-07-29T08:57:30;21.70;99.90
5647;DHT22;2845;48.626;9.362;2023-07-29T09:00:06;22.00;99.90
5647;DHT22;2845;48.626;9.362;2023-07-29T09:02:41;22.20;99.90
5647;DHT22;2845;48.626;9.362;2023-07-29T09:05:16;22.30;99.90
5647;DHT22;2845;48.626;9.362;2023-07-29T09:07:52;22.40;99.90
5647;DHT22;2845;48.626;9.362;2023-07-29T09:10:28;22.50;99.90
5647;DHT22;2845;48.626;9.362;2023-07-29T09:13:03;22.50;99.90
5647;DHT22;2845;48.626;9.362;2023-07-29T09:15:37;22.50;99.90
5647;DHT22;2845;48.626;9.362;2023-07-29T09:18:14;22.70;99.90
5647;DHT22;2845;48.626;9.362;2023-07-29T09:20:50;22.80;99.90
5647;DHT22;2845;48.626;9.362;2023-07-29T09:23:24;22.90;99.50
5647;DHT22;2845;48.626;9.362;2023-07-29T09:26:03;22.80;99.30
5647;DHT22;2845;48.626;9.362;2023-07-29T09:28:39;22.70;99.80
5647;DHT22;2845;48.626;9.362;2023-07-29T09:31:19;22.70;99.90
5647;DHT22;2845;48.626;9.362;2023-07-29T09:33:56;22.80;99.70
5647;DHT22;2845;48.626;9.362;2023-07-29T09:36:32;22.80;99.30
5647;DHT22;2845;48.626;9.362;2023-07-29T09:39:11;23.00;99.50
5647;DHT22;2845;48.626;9.362;2023-07-29T09:41:48;23.90;99.30
5647;DHT22;2845;48.626;9.362;2023-07-29T09:44:22;23.70;98.80
5647;DHT22;2845;48.626;9.362;2023-07-29T09:46:57;24.00;98.70
5647;DHT22;2845;48.626;9.362;2023-07-29T09:49:35;24.30;98.30
5647;DHT22;2845;48.626;9.362;2023-07-29T09:52:10;24.50;97.20
5647;DHT22;2845;48.626;9.362;2023-07-29T09:54:45;24.80;97.00
5647;DHT22;2845;48.626;9.362;2023-07-29T09:57:21;24.90;96.70
5647;DHT22;2845;48.626;9.362;2023-07-29T09:59:56;24.80;96.50
5647;DHT22;2845;48.626;9.362;2023-07-29T10:02:30;24.70;96.80
5647;DHT22;2845;48.626;9.362;2023-07-29T10:05:06;24.90;96.80
5647;DHT22;2845;48.626;9.362;2023-07-29T10:07:41;25.10;96.50
5647;DHT22;2845;48.626;9.362;2023-07-29T10:10:15;25.10;96.30
5647;DHT22;2845;48.626;9.362;2023-07-29T10:12:52;24.80;95.70
5647;DHT22;2845;48.626;9.362;2023-07-29T10:15:27;24.60;95.90
5647;DHT22;2845;48.626;9.362;2023-07-29T10:18:02;24.40;96.00
5647;DHT22;2845;48.626;9.362;2023-07-29T10:20:37;24.30;96.40
5647;DHT22;2845;48.626;9.362;2023-07-29T10:23:13;24.20;96.50
5647;DHT22;2845;48.626;9.362;2023-07-29T10:26:02;25.30;96.80
5647;DHT22;2845;48.626;9.362;2023-07-29T10:28:40;24.30;96.40
5647;DHT22;2845;48.626;9.362;2023-07-29T10:31:16;24.80;96.30
5647;DHT22;2845;48.626;9.362;2023-07-29T10:33:50;24.50;96.30
5647;DHT22;2845;48.626;9.362;2023-07-29T10:36:25;24.60;96.00
5647;DHT22;2845;48.626;9.362;2023-07-29T10:38:59;24.80;95.70
5647;DHT22;2845;48.626;9.362;2023-07-29T10:41:56;24.90;95.40
5647;DHT22;2845;48.626;9.362;2023-07-29T10:44:49;25.20;95.40
5647;DHT22;2845;48.626;9.362;2023-07-29T10:47:25;25.40;94.80
5647;DHT22;2845;48.626;9.362;2023-07-29T10:50:00;25.30;94.70
5647;DHT22;2845;48.626;9.362;2023-07-29T10:52:43;25.20;94.60
5647;DHT22;2845;48.626;9.362;2023-07-29T10:55:28;25.60;94.80
5647;DHT22;2845;48.626;9.362;2023-07-29T10:58:14;25.60;94.60
5647;DHT22;2845;48.626;9.362;2023-07-29T11:00:51;25.60;93.70
5647;DHT22;2845;48.626;9.362;2023-07-29T11:03:26;25.60;93.80
5647;DHT22;2845;48.626;9.362;2023-07-29T11:06:04;25.50;93.50
5647;DHT22;2845;48.626;9.362;2023-07-29T11:08:38;25.50;93.70
5647;DHT22;2845;48.626;9.362;2023-07-29T11:11:13;25.60;93.50
5647;DHT22;2845;48.626;9.362;2023-07-29T11:13:47;25.90;93.40
5647;DHT22;2845;48.626;9.362;2023-07-29T11:16:23;26.20;92.90
5647;DHT22;2845;48.626;9.362;2023-07-29T11:18:58;26.40;92.20
5647;DHT22;2845;48.626;9.362;2023-07-29T11:21:33;26.60;91.60
5647;DHT22;2845;48.626;9.362;2023-07-29T11:24:09;27.30;91.20
5647;DHT22;2845;48.626;9.362;2023-07-29T11:26:46;26.70;91.00
5647;DHT22;2845;48.626;9.362;2023-07-29T11:29:20;26.90;90.80
5647;DHT22;2845;48.626;9.362;2023-07-29T11:31:56;26.90;90.30
5647;DHT22;2845;48.626;9.362;2023-07-29T11:34:31;27.20;90.40
5647;DHT22;2845;48.626;9.362;2023-07-29T11:37:05;27.10;90.00
5647;DHT22;2845;48.626;9.362;2023-07-29T11:39:40;27.10;89.50
5647;DHT22;2845;48.626;9.362;2023-07-29T11:42:15;27.60;89.80
5647;DHT22;2845;48.626;9.362;2023-07-29T11:44:49;26.90;88.80
5647;DHT22;2845;48.626;9.362;2023-07-29T11:47:25;27.60;89.60
5647;DHT22;2845;48.626;9.362;2023-07-29T11:49:59;27.00;89.30
5647;DHT22;2845;48.626;9.362;2023-07-29T11:52:34;27.80;89.00
5647;DHT22;2845;48.626;9.362;2023-07-29T11:55:09;27.40;88.60
5647;DHT22;2845;48.626;9.362;2023-07-29T11:57:44;27.40;88.40
5647;DHT22;2845;48.626;9.362;2023-07-29T12:00:18;27.40;88.40
5647;DHT22;2845;48.626;9.362;2023-07-29T12:02:54;27.20;88.30
5647;DHT22;2845;48.626;9.362;2023-07-29T12:05:29;27.10;87.90
5647;DHT22;2845;48.626;9.362;2023-07-29T12:08:04;27.00;88.00
5647;DHT22;2845;48.626;9.362;2023-07-29T12:10:38;27.20;86.90
5647;DHT22;2845;48.626;9.362;2023-07-29T12:13:13;27.10;87.60
5647;DHT22;2845;48.626;9.362;2023-07-29T12:15:47;27.50;87.90
5647;DHT22;2845;48.626;9.362;2023-07-29T12:18:32;27.00;87.60
5647;DHT22;2845;48.626;9.362;2023-07-29T12:21:07;27.00;87.70
5647;DHT22;2845;48.626;9.362;2023-07-29T12:23:41;27.00;87.70
5647;DHT22;2845;48.626;9.362;2023-07-29T12:26:15;26.80;88.20
5647;DHT22;2845;48.626;9.362;2023-07-29T12:28:49;26.60;88.60
5647;DHT22;2845;48.626;9.362;2023-07-29T12:31:31;26.50;89.20
5647;DHT22;2845;48.626;9.362;2023-07-29T12:34:07;26.50;89.90
5647;DHT22;2845;48.626;9.362;2023-07-29T12:36:42;26.60;90.10
5647;DHT22;2845;48.626;9.362;2023-07-29T12:39:18;26.70;90.00
5647;DHT22;2845;48.626;9.362;2023-07-29T12:41:54;26.80;89.60
5647;DHT22;2845;48.626;9.362;2023-07-29T12:44:31;26.80;89.40
5647;DHT22;2845;48.626;9.362;2023-07-29T12:47:06;26.90;88.80
5647;DHT22;2845;48.626;9.362;2023-07-29T12:49:42;26.90;89.30
5647;DHT22;2845;48.626;9.362;2023-07-29T12:52:17;26.90;89.10
5647;DHT22;2845;48.626;9.362;2023-07-29T12:54:51;27.10;89.60
5647;DHT22;2845;48.626;9.362;2023-07-29T12:57:25;26.40;89.20
5647;DHT22;2845;48.626;9.362;2023-07-29T12:59:59;26.40;89.90
5647;DHT22;2845;48.626;9.362;2023-07-29T13:02:33;26.40;90.10
5647;DHT22;2845;48.626;9.362;2023-07-29T13:05:11;26.50;89.70
5647;DHT22;2845;48.626;9.362;2023-07-29T13:07:45;26.60;89.70
5647;DHT22;2845;48.626;9.362;2023-07-29T13:10:19;26.70;89.30
5647;DHT22;2845;48.626;9.362;2023-07-29T13:12:53;26.90;89.40
5647;DHT22;2845;48.626;9.362;2023-07-29T13:15:28;27.10;88.90
5647;DHT22;2845;48.626;9.362;2023-07-29T13:18:02;28.00;89.50
5647;DHT22;2845;48.626;9.362;2023-07-29T13:20:38;27.40;89.10
5647;DHT22;2845;48.626;9.362;2023-07-29T13:23:12;27.50;86.40
5647;DHT22;2845;48.626;9.362;2023-07-29T13:25:47;27.80;86.90
5647;DHT22;2845;48.626;9.362;2023-07-29T13:28:21;27.60;87.40
5647;DHT22;2845;48.626;9.362;2023-07-29T13:30:55;27.70;87.60
5647;DHT22;2845;48.626;9.362;2023-07-29T13:33:29;28.00;86.90
5647;DHT22;2845;48.626;9.362;2023-07-29T13:36:08;27.50;87.20
5647;DHT22;2845;48.626;9.362;2023-07-29T13:38:42;27.50;86.70
5647;DHT22;2845;48.626;9.362;2023-07-29T13:41:16;27.30;87.20
5647;DHT22;2845;48.626;9.362;2023-07-29T13:43:50;27.40;87.20
5647;DHT22;2845;48.626;9.362;2023-07-29T13:46:24;27.60;85.70
5647;DHT22;2845;48.626;9.362;2023-07-29T13:48:58;27.80;84.00
5647;DHT22;2845;48.626;9.362;2023-07-29T13:51:34;27.80;82.10
5647;DHT22;2845;48.626;9.362;2023-07-29T13:54:08;28.40;81.70
5647;DHT22;2845;48.626;9.362;2023-07-29T13:56:42;27.90;81.50
5647;DHT22;2845;48.626;9.362;2023-07-29T13:59:17;28.20;81.40
5647;DHT22;2845;48.626;9.362;2023-07-29T14:01:51;27.90;79.80
5647;DHT22;2845;48.626;9.362;2023-07-29T14:04:25;27.90;79.80
5647;DHT22;2845;48.626;9.362;2023-07-29T14:07:00;27.90;80.20
5647;DHT22;2845;48.626;9.362;2023-07-29T14:09:35;27.70;79.90
5647;DHT22;2845;48.626;9.362;2023-07-29T14:12:10;27.60;78.50
5647;DHT22;2845;48.626;9.362;2023-07-29T14:14:47;28.00;79.30
5647;DHT22;2845;48.626;9.362;2023-07-29T14:17:21;27.40;78.60
5647;DHT22;2845;48.626;9.362;2023-07-29T14:19:55;27.60;79.50
5647;DHT22;2845;48.626;9.362;2023-07-29T14:22:31;27.40;79.00
5647;DHT22;2845;48.626;9.362;2023-07-29T14:25:07;27.30;78.60
5647;DHT22;2845;48.626;9.362;2023-07-29T14:27:41;27.50;79.30
5647;DHT22;2845;48.626;9.362;2023-07-29T14:30:16;27.50;78.50
5647;DHT22;2845;48.626;9.362;2023-07-29T14:32:50;27.40;78.00
5647;DHT22;2845;48.626;9.362;2023-07-29T14:35:24;27.30;78.50
5647;DHT22;2845;48.626;9.362;2023-07-29T14:38:00;27.30;78.50
5647;DHT22;2845;48.626;9.362;2023-07-29T14:40:34;27.30;78.20
5647;DHT22;2845;48.626;9.362;2023-07-29T14:43:09;27.30;78.70
5647;DHT22;2845;48.626;9.362;2023-07-29T14:45:43;27.50;78.90
5647;DHT22;2845;48.626;9.362;2023-07-29T14:48:17;27.50;78.70
5647;DHT22;2845;48.626;9.362;2023-07-29T14:50:51;27.50;78.90
5647;DHT22;2845;48.626;9.362;2023-07-29T14:53:27;27.40;79.70
5647;DHT22;2845;48.626;9.362;2023-07-29T14:56:01;27.40;79.80
5647;DHT22;2845;48.626;9.362;2023-07-29T14:58:35;27.40;79.00
5647;DHT22;2845;48.626;9.362;2023-07-29T15:01:09;27.50;79.80
5647;DHT22;2845;48.626;9.362;2023-07-29T15:03:43;28.30;79.20
5647;DHT22;2845;48.626;9.362;2023-07-29T15:06:18;27.70;78.80
5647;DHT22;2845;48.626;9.362;2023-07-29T15:08:54;27.80;78.50
5647;DHT22;2845;48.626;9.362;2023-07-29T15:11:28;27.70;78.90
5647;DHT22;2845;48.626;9.362;2023-07-29T15:14:03;27.60;79.40
5647;DHT22;2845;48.626;9.362;2023-07-29T15:16:37;27.60;79.70
5647;DHT22;2845;48.626;9.362;2023-07-29T15:19:12;27.70;79.20
5647;DHT22;2845;48.626;9.362;2023-07-29T15:21:50;27.60;79.10
5647;DHT22;2845;48.626;9.362;2023-07-29T15:24:26;27.60;79.50
5647;DHT22;2845;48.626;9.362;2023-07-29T15:27:03;27.50;78.70
5647;DHT22;2845;48.626;9.362;2023-07-29T15:29:38;27.30;79.50
5647;DHT22;2845;48.626;9.362;2023-07-29T15:32:12;28.10;79.90
5647;DHT22;2845;48.626;9.362;2023-07-29T15:34:47;27.00;80.00
5647;DHT22;2845;48.626;9.362;2023-07-29T15:37:21;26.90;80.10
5647;DHT22;2845;48.626;9.362;2023-07-29T15:39:57;26.80;80.30
5647;DHT22;2845;48.626;9.362;2023-07-29T15:42:31;26.80;80.70
5647;DHT22;2845;48.626;9.362;2023-07-29T15:45:06;26.80;80.20
5647;DHT22;2845;48.626;9.362;2023-07-29T15:47:41;26.80;80.20
5647;DHT22;2845;48.626;9.362;2023-07-29T15:50:16;26.80;80.60
5647;DHT22;2845;48.626;9.362;2023-07-29T15:52:50;26.80;81.20
5647;DHT22;2845;48.626;9.362;2023-07-29T15:55:26;27.10;81.00
5647;DHT22;2845;48.626;9.362;2023-07-29T15:58:00;28.20;81.70
5647;DHT22;2845;48.626;9.362;2023-07-29T16:00:34;26.80;81.20
5647;DHT22;2845;48.626;9.362;2023-07-29T16:03:08;26.60;80.80
5647;DHT22;2845;48.626;9.362;2023-07-29T16:05:42;26.50;81.90
5647;DHT22;2845;48.626;9.362;2023-07-29T16:08:20;26.30;82.30
5647;DHT22;2845;48.626;9.362;2023-07-29T16:10:55;26.40;82.40
5647;DHT22;2845;48.626;9.362;2023-07-29T16:13:29;26.30;82.40
5647;DHT22;2845;48.626;9.362;2023-07-29T16:16:04;26.50;82.60
5647;DHT22;2845;48.626;9.362;2023-07-29T16:18:38;26.50;82.20
5647;DHT22;2845;48.626;9.362;2023-07-29T16:21:12;26.50;81.80
5647;DHT22;2845;48.626;9.362;2023-07-29T16:23:46;26.50;81.30
5647;DHT22;2845;48.626;9.362;2023-07-29T16:26:26;26.50;81.40
5647;DHT22;2845;48.626;9.362;2023-07-29T16:29:00;26.40;81.60
5647;DHT22;2845;48.626;9.362;2023-07-29T16:31:37;26.30;81.90
5647;DHT22;2845;48.626;9.362;2023-07-29T16:34:11;26.10;82.00
5647;DHT22;2845;48.626;9.362;2023-07-29T16:36:45;26.00;82.20
5647;DHT22;2845;48.626;9.362;2023-07-29T16:39:19;26.00;82.00
5647;DHT22;2845;48.626;9.362;2023-07-29T16:41:55;26.20;82.90
5647;DHT22;2845;48.626;9.362;2023-07-29T16:44:37;26.10;83.30
5647;DHT22;2845;48.626;9.362;2023-07-29T16:47:13;26.10;83.60
5647;DHT22;2845;48.626;9.362;2023-07-29T16:49:47;26.00;83.90
5647;DHT22;2845;48.626;9.362;2023-07-29T16:52:21;26.20;84.60
5647;DHT22;2845;48.626;9.362;2023-07-29T16:54:55;26.00;84.90